createdAt,value
2023-01-19T00:00:15.821Z,82.94
2023-01-19T00:01:15.696Z,83.04
2023-01-19T00:02:15.695Z,82.94
2023-01-19T00:03:15.680Z,82.63
2023-01-19T00:04:15.700Z,82.63
2023-01-19T00:05:15.692Z,82.73
2023-01-19T00:06:15.784Z,82.63
2023-01-19T00:07:15.619Z,82.73
2023-01-19T00:08:15.673Z,82.73
2023-01-19T00:09:15.728Z,82.73
2023-01-19T00:10:15.593Z,82.84
2023-01-19T00:11:15.615Z,82.94
2023-01-19T00:12:15.610Z,82.84
2023-01-19T00:13:15.629Z,82.84
2023-01-19T00:14:15.539Z,82.73
2023-01-19T00:15:15.585Z,82.84
2023-01-19T00:16:15.572Z,82.63
2023-01-19T00:17:15.527Z,82.73
2023-01-19T00:18:15.592Z,82.84
2023-01-19T00:19:15.468Z,82.94
2023-01-19T00:20:15.488Z,82.94
2023-01-19T00:21:15.484Z,82.84
2023-01-19T00:22:15.439Z,82.98
2023-01-19T00:23:15.474Z,83.18
2023-01-19T00:24:15.466Z,83.29
2023-01-19T00:25:15.387Z,83.08
2023-01-19T00:26:15.389Z,83.18
2023-01-19T00:27:15.421Z,83.29
2023-01-19T00:28:15.382Z,83.40
2023-01-19T00:29:15.360Z,83.50
2023-01-19T00:30:15.363Z,83.50
2023-01-19T00:31:15.352Z,83.50
2023-01-19T00:32:15.294Z,83.61
2023-01-19T00:33:15.324Z,83.61
2023-01-19T00:34:15.309Z,83.50
2023-01-19T00:35:15.325Z,83.61
2023-01-19T00:36:15.257Z,83.71
2023-01-19T00:37:15.330Z,83.71
2023-01-19T00:38:15.214Z,83.71
2023-01-19T00:39:15.205Z,83.71
2023-01-19T00:40:15.241Z,83.61
2023-01-19T00:41:15.217Z,83.61
2023-01-19T00:42:15.204Z,83.47
2023-01-19T00:43:15.147Z,83.36
2023-01-19T00:44:15.163Z,83.50
2023-01-19T00:45:15.144Z,83.61
2023-01-19T00:46:15.124Z,83.47
2023-01-19T00:47:15.241Z,83.36
2023-01-19T00:48:15.118Z,83.36
2023-01-19T00:49:15.086Z,83.40
2023-01-19T00:50:15.107Z,83.50
2023-01-19T00:51:15.074Z,83.57
2023-01-19T00:52:15.083Z,83.36
2023-01-19T00:53:15.090Z,83.15
2023-01-19T00:54:15.024Z,83.15
2023-01-19T00:55:15.037Z,82.94
2023-01-19T00:56:15.042Z,82.94
2023-01-19T00:57:14.980Z,82.84
2023-01-19T00:58:14.962Z,82.94
2023-01-19T00:59:15.063Z,82.94
2023-01-19T01:00:14.950Z,82.94
2023-01-19T01:01:15.083Z,82.73
2023-01-19T01:02:15.128Z,82.63
2023-01-19T01:03:14.919Z,82.53
2023-01-19T01:04:14.924Z,82.31
2023-01-19T01:05:14.891Z,82.42
2023-01-19T01:06:14.953Z,82.63
2023-01-19T01:07:14.870Z,82.84
2023-01-19T01:08:14.838Z,82.84
2023-01-19T01:09:14.865Z,82.94
2023-01-19T01:10:14.860Z,82.94
2023-01-19T01:11:14.830Z,82.94
2023-01-19T01:12:14.998Z,82.94
2023-01-19T01:13:20.426Z,82.94
2023-01-19T01:14:15.829Z,82.98
2023-01-19T01:15:15.320Z,83.08
2023-01-19T01:16:14.802Z,83.29
2023-01-19T01:17:14.774Z,83.18
2023-01-19T01:18:14.739Z,83.40
2023-01-19T01:19:14.770Z,83.40
2023-01-19T01:20:14.690Z,83.29
2023-01-19T01:21:14.692Z,83.40
2023-01-19T01:22:14.687Z,83.40
2023-01-19T01:23:25.098Z,83.40
2023-01-19T01:24:14.648Z,83.50
2023-01-19T01:25:14.665Z,83.40
2023-01-19T01:26:14.678Z,83.61
2023-01-19T01:27:14.629Z,83.50
2023-01-19T01:28:14.578Z,83.61
2023-01-19T01:29:14.658Z,83.71
2023-01-19T01:30:14.603Z,83.71
2023-01-19T01:31:14.573Z,83.61
2023-01-19T01:32:14.623Z,83.81
2023-01-19T01:33:14.560Z,83.71
2023-01-19T01:34:14.505Z,83.71
2023-01-19T01:35:14.577Z,83.81
2023-01-19T01:36:14.488Z,83.71
2023-01-19T01:37:14.467Z,83.81
2023-01-19T01:38:14.524Z,83.71
2023-01-19T01:39:14.466Z,83.61
2023-01-19T01:40:14.424Z,83.61
2023-01-19T01:41:14.416Z,83.50
2023-01-19T01:42:14.478Z,83.40
2023-01-19T01:43:14.450Z,83.40
2023-01-19T01:44:14.377Z,83.18
2023-01-19T01:45:14.403Z,83.29
2023-01-19T01:46:14.417Z,83.40
2023-01-19T01:47:14.331Z,83.29
2023-01-19T01:48:14.383Z,83.29
2023-01-19T01:49:14.311Z,83.40
2023-01-19T01:50:14.313Z,83.29
2023-01-19T01:51:14.344Z,83.18
2023-01-19T01:52:14.288Z,83.29
2023-01-19T01:53:14.269Z,83.40
2023-01-19T01:54:14.356Z,83.29
2023-01-19T01:55:14.243Z,83.15
2023-01-19T01:56:14.223Z,82.98
2023-01-19T01:57:14.289Z,82.98
2023-01-19T01:58:14.192Z,82.98
2023-01-19T01:59:14.182Z,83.08
2023-01-19T02:00:14.170Z,82.98
2023-01-19T02:01:14.249Z,82.98
2023-01-19T02:02:14.224Z,83.18
2023-01-19T02:03:14.202Z,82.98
2023-01-19T02:04:14.115Z,82.98
2023-01-19T02:05:14.114Z,82.98
2023-01-19T02:06:32.752Z,82.84
2023-01-19T02:07:15.112Z,82.77
2023-01-19T02:08:14.068Z,82.77
2023-01-19T02:09:14.150Z,82.77
2023-01-19T02:10:14.043Z,82.87
2023-01-19T02:11:14.036Z,82.87
2023-01-19T02:12:14.060Z,82.98
2023-01-19T02:13:14.019Z,82.87
2023-01-19T02:14:14.003Z,82.77
2023-01-19T02:15:14.037Z,82.56
2023-01-19T02:16:13.992Z,82.53
2023-01-19T02:17:13.947Z,82.35
2023-01-19T02:18:14.014Z,82.46
2023-01-19T02:19:13.963Z,82.35
2023-01-19T02:20:13.942Z,82.35
2023-01-19T02:21:14.104Z,82.31
2023-01-19T02:22:13.881Z,82.21
2023-01-19T02:23:13.892Z,82.00
2023-01-19T02:24:13.893Z,81.90
2023-01-19T02:25:13.851Z,81.59
2023-01-19T02:26:13.859Z,81.59
2023-01-19T02:27:13.890Z,81.59
2023-01-19T02:28:13.808Z,81.59
2023-01-19T02:29:13.818Z,81.48
2023-01-19T02:30:13.837Z,81.38
2023-01-19T02:31:13.789Z,81.13
2023-01-19T02:32:13.802Z,81.06
2023-01-19T02:33:13.778Z,80.96
2023-01-19T02:34:13.730Z,80.96
2023-01-19T02:35:13.722Z,81.06
2023-01-19T02:36:13.747Z,81.13
2023-01-19T02:37:13.697Z,81.02
2023-01-19T02:38:13.682Z,80.92
2023-01-19T02:39:13.736Z,80.92
2023-01-19T02:40:13.665Z,80.82
2023-01-19T02:41:13.646Z,80.71
2023-01-19T02:42:13.683Z,80.82
2023-01-19T02:43:13.644Z,80.85
2023-01-19T02:44:13.628Z,80.96
2023-01-19T02:45:13.656Z,80.96
2023-01-19T02:46:13.630Z,81.27
2023-01-19T02:47:13.560Z,81.27
2023-01-19T02:48:13.663Z,81.16
2023-01-19T02:49:13.556Z,81.06
2023-01-19T02:50:13.518Z,81.16
2023-01-19T02:51:13.582Z,81.16
2023-01-19T02:52:13.498Z,81.16
2023-01-19T02:53:13.494Z,81.27
2023-01-19T02:54:13.507Z,81.38
2023-01-19T02:55:13.475Z,81.48
2023-01-19T02:56:13.453Z,81.62
2023-01-19T02:57:13.524Z,81.59
2023-01-19T02:58:13.414Z,81.59
2023-01-19T02:59:13.418Z,81.38
2023-01-19T03:00:13.433Z,81.41
2023-01-19T03:01:13.513Z,81.73
2023-01-19T03:02:13.454Z,81.83
2023-01-19T03:03:13.451Z,81.83
2023-01-19T03:04:13.345Z,81.93
2023-01-19T03:05:13.321Z,82.07
2023-01-19T03:06:13.341Z,82.18
2023-01-19T03:07:13.316Z,82.29
2023-01-19T03:08:13.294Z,82.39
2023-01-19T03:09:13.410Z,82.29
2023-01-19T03:10:13.259Z,82.29
2023-01-19T03:11:13.270Z,82.29
2023-01-19T03:12:13.321Z,82.39
2023-01-19T03:13:13.238Z,82.60
2023-01-19T03:14:13.208Z,82.50
2023-01-19T03:15:13.295Z,82.50
2023-01-19T03:16:13.360Z,82.39
2023-01-19T03:17:13.191Z,82.39
2023-01-19T03:18:13.259Z,82.50
2023-01-19T03:19:13.142Z,82.50
2023-01-19T03:20:13.146Z,82.60
2023-01-19T03:21:13.191Z,82.74
2023-01-19T03:22:13.118Z,82.70
2023-01-19T03:23:13.112Z,82.60
2023-01-19T03:24:13.120Z,82.50
2023-01-19T03:25:13.103Z,82.60
2023-01-19T03:26:13.066Z,82.50
2023-01-19T03:27:13.101Z,82.32
2023-01-19T03:28:13.041Z,82.22
2023-01-19T03:29:13.028Z,82.43
2023-01-19T03:30:13.087Z,82.32
2023-01-19T03:31:13.060Z,82.32
2023-01-19T03:32:12.990Z,82.22
2023-01-19T03:33:13.098Z,82.22
2023-01-19T03:34:12.957Z,82.32
2023-01-19T03:35:12.968Z,82.18
2023-01-19T03:36:12.981Z,81.97
2023-01-19T03:37:12.917Z,82.01
2023-01-19T03:38:12.908Z,82.22
2023-01-19T03:39:13.158Z,82.18
2023-01-19T03:40:12.895Z,81.97
2023-01-19T03:41:12.879Z,81.97
2023-01-19T03:42:12.902Z,81.87
2023-01-19T03:43:12.867Z,81.90
2023-01-19T03:44:12.827Z,82.12
2023-01-19T03:45:12.883Z,82.22
2023-01-19T03:46:13.060Z,82.22
2023-01-19T03:47:12.792Z,82.32
2023-01-19T03:48:12.848Z,82.18
2023-01-19T03:49:12.763Z,82.01
2023-01-19T03:50:12.762Z,81.90
2023-01-19T03:51:12.828Z,81.97
2023-01-19T03:52:12.751Z,81.87
2023-01-19T03:53:12.734Z,81.76
2023-01-19T03:54:12.747Z,81.76
2023-01-19T03:55:12.721Z,81.90
2023-01-19T03:56:12.686Z,81.90
2023-01-19T03:57:12.717Z,81.90
2023-01-19T03:58:12.642Z,81.90
2023-01-19T03:59:12.645Z,82.01
2023-01-19T04:00:12.682Z,81.90
2023-01-19T04:01:12.913Z,81.80
2023-01-19T04:02:12.696Z,81.80
2023-01-19T04:03:12.791Z,81.80
2023-01-19T04:04:12.573Z,81.90
2023-01-19T04:05:12.570Z,81.90
2023-01-19T04:06:12.595Z,81.80
2023-01-19T04:07:12.591Z,81.80
2023-01-19T04:08:12.541Z,82.01
2023-01-19T04:09:12.599Z,82.12
2023-01-19T04:10:12.516Z,82.32
2023-01-19T04:11:12.511Z,82.32
2023-01-19T04:12:12.518Z,82.32
2023-01-19T04:13:12.471Z,82.32
2023-01-19T04:14:12.439Z,82.32
2023-01-19T04:15:12.545Z,82.22
2023-01-19T04:16:12.557Z,82.12
2023-01-19T04:17:12.469Z,82.15
2023-01-19T04:18:12.520Z,82.15
2023-01-19T04:19:12.398Z,82.15
2023-01-19T04:20:12.374Z,82.15
2023-01-19T04:21:12.403Z,82.15
2023-01-19T04:22:12.400Z,82.15
2023-01-19T04:23:12.401Z,82.26
2023-01-19T04:24:12.408Z,82.05
2023-01-19T04:25:12.315Z,81.95
2023-01-19T04:26:12.315Z,82.05
2023-01-19T04:27:12.286Z,82.26
2023-01-19T04:28:12.333Z,82.26
2023-01-19T04:29:12.288Z,82.26
2023-01-19T04:30:12.248Z,82.15
2023-01-19T04:31:12.442Z,81.95
2023-01-19T04:32:12.219Z,81.84
2023-01-19T04:33:12.224Z,81.95
2023-01-19T04:34:12.254Z,81.95
2023-01-19T04:35:12.228Z,81.73
2023-01-19T04:36:12.184Z,81.73
2023-01-19T04:37:12.162Z,81.84
2023-01-19T04:38:12.164Z,81.73
2023-01-19T04:39:12.167Z,82.09
2023-01-19T04:40:12.134Z,82.29
2023-01-19T04:41:12.197Z,82.46
2023-01-19T04:42:12.095Z,82.36
2023-01-19T04:43:12.127Z,82.36
2023-01-19T04:44:12.133Z,82.26
2023-01-19T04:45:12.117Z,81.95
2023-01-19T04:46:12.117Z,82.05
2023-01-19T04:47:12.059Z,82.15
2023-01-19T04:48:12.065Z,81.98
2023-01-19T04:49:12.056Z,82.09
2023-01-19T04:50:12.011Z,82.19
2023-01-19T04:51:12.046Z,82.40
2023-01-19T04:52:11.958Z,82.60
2023-01-19T04:53:11.955Z,82.50
2023-01-19T04:54:12.052Z,82.50
2023-01-19T04:55:11.924Z,82.60
2023-01-19T04:56:11.953Z,82.50
2023-01-19T04:57:11.995Z,82.46
2023-01-19T04:58:11.898Z,82.36
2023-01-19T04:59:11.895Z,82.46
2023-01-19T05:00:11.896Z,82.36
2023-01-19T05:01:11.887Z,82.26
2023-01-19T05:02:11.895Z,82.15
2023-01-19T05:03:11.971Z,81.80
2023-01-19T05:04:11.805Z,81.84
2023-01-19T05:05:11.812Z,81.80
2023-01-19T05:06:11.832Z,81.70
2023-01-19T05:07:11.785Z,81.52
2023-01-19T05:08:11.773Z,81.73
2023-01-19T05:09:11.928Z,81.84
2023-01-19T05:10:11.791Z,81.95
2023-01-19T05:11:11.735Z,81.95
2023-01-19T05:12:11.741Z,82.05
2023-01-19T05:13:11.773Z,82.15
2023-01-19T05:14:11.721Z,82.15
2023-01-19T05:15:11.723Z,82.26
2023-01-19T05:16:11.740Z,82.26
2023-01-19T05:17:11.668Z,82.15
2023-01-19T05:18:11.629Z,82.26
2023-01-19T05:19:18.423Z,82.36
2023-01-19T05:20:15.675Z,82.46
2023-01-19T05:21:11.618Z,82.32
2023-01-19T05:22:11.585Z,82.22
2023-01-19T05:23:11.589Z,82.12
2023-01-19T05:24:11.556Z,82.15
2023-01-19T05:25:11.546Z,82.22
2023-01-19T05:26:11.661Z,82.32
2023-01-19T05:27:11.520Z,82.32
2023-01-19T05:28:11.534Z,82.22
2023-01-19T05:29:11.671Z,82.22
2023-01-19T05:30:11.480Z,81.90
2023-01-19T05:31:11.636Z,81.80
2023-01-19T05:32:11.478Z,81.90
2023-01-19T05:33:11.492Z,81.90
2023-01-19T05:34:11.487Z,81.70
2023-01-19T05:35:11.432Z,81.59
2023-01-19T05:36:11.466Z,81.45
2023-01-19T05:37:11.430Z,81.45
2023-01-19T05:38:11.398Z,81.35
2023-01-19T05:39:11.371Z,81.35
2023-01-19T05:40:11.397Z,81.24
2023-01-19T05:41:11.361Z,81.35
2023-01-19T05:42:11.309Z,81.45
2023-01-19T05:43:11.379Z,81.45
2023-01-19T05:44:11.355Z,81.45
2023-01-19T05:45:11.314Z,81.35
2023-01-19T05:46:11.447Z,81.13
2023-01-19T05:47:11.255Z,80.93
2023-01-19T05:48:11.258Z,80.82
2023-01-19T05:49:11.254Z,80.72
2023-01-19T05:50:11.309Z,80.72
2023-01-19T05:51:11.224Z,80.72
2023-01-19T05:52:11.201Z,80.82
2023-01-19T05:53:11.187Z,80.82
2023-01-19T05:54:11.233Z,80.72
2023-01-19T05:55:11.266Z,80.72
2023-01-19T05:56:11.170Z,80.72
2023-01-19T05:57:11.134Z,80.72
2023-01-19T05:58:11.182Z,80.72
2023-01-19T05:59:11.132Z,80.72
2023-01-19T06:00:11.146Z,80.72
2023-01-19T06:01:11.153Z,80.82
2023-01-19T06:02:11.224Z,80.93
2023-01-19T06:03:11.160Z,80.89
2023-01-19T06:04:11.072Z,80.79
2023-01-19T06:05:11.059Z,80.58
2023-01-19T06:06:11.055Z,80.58
2023-01-19T06:07:11.061Z,80.58
2023-01-19T06:08:10.992Z,80.47
2023-01-19T06:09:11.021Z,80.37
2023-01-19T06:10:11.013Z,80.27
2023-01-19T06:11:10.981Z,80.37
2023-01-19T06:12:10.960Z,80.27
2023-01-19T06:13:10.948Z,80.27
2023-01-19T06:14:10.975Z,80.27
2023-01-19T06:15:10.930Z,80.27
2023-01-19T06:16:10.923Z,80.37
2023-01-19T06:17:10.907Z,80.37
2023-01-19T06:18:10.870Z,80.51
2023-01-19T06:19:10.859Z,80.82
2023-01-19T06:20:10.872Z,81.03
2023-01-19T06:21:10.891Z,81.13
2023-01-19T06:22:10.883Z,81.24
2023-01-19T06:23:10.936Z,81.45
2023-01-19T06:24:11.454Z,81.45
2023-01-19T06:25:10.800Z,81.45
2023-01-19T06:26:10.815Z,81.31
2023-01-19T06:27:10.820Z,81.21
2023-01-19T06:28:10.753Z,80.99
2023-01-19T06:29:10.827Z,80.99
2023-01-19T06:30:10.792Z,80.79
2023-01-19T06:31:10.725Z,80.79
2023-01-19T06:32:10.697Z,80.89
2023-01-19T06:33:10.858Z,80.99
2023-01-19T06:34:10.707Z,80.79
2023-01-19T06:35:10.646Z,80.79
2023-01-19T06:36:10.680Z,80.79
2023-01-19T06:37:10.658Z,80.68
2023-01-19T06:38:10.614Z,80.65
2023-01-19T06:39:10.667Z,80.54
2023-01-19T06:40:11.980Z,80.44
2023-01-19T06:41:10.615Z,80.23
2023-01-19T06:42:10.567Z,80.13
2023-01-19T06:43:10.575Z,80.13
2023-01-19T06:44:10.548Z,80.13
2023-01-19T06:45:10.540Z,79.91
2023-01-19T06:46:10.559Z,79.91
2023-01-19T06:47:15.764Z,79.91
2023-01-19T06:48:11.495Z,79.81
2023-01-19T06:49:10.532Z,79.71
2023-01-19T06:50:10.483Z,79.60
2023-01-19T06:51:10.489Z,79.85
2023-01-19T06:52:10.447Z,79.74
2023-01-19T06:53:10.515Z,79.95
2023-01-19T06:54:10.416Z,80.05
2023-01-19T06:55:10.407Z,80.05
2023-01-19T06:56:10.389Z,80.16
2023-01-19T06:57:10.393Z,80.20
2023-01-19T06:58:10.387Z,80.51
2023-01-19T06:59:10.362Z,80.51
2023-01-19T07:00:10.397Z,80.27
2023-01-19T07:01:10.413Z,80.30
2023-01-19T07:02:26.808Z,80.41
2023-01-19T07:03:11.384Z,80.41
2023-01-19T07:04:10.320Z,80.20
2023-01-19T07:05:10.253Z,80.30
2023-01-19T07:06:10.278Z,80.41
2023-01-19T07:07:10.259Z,80.30
2023-01-19T07:08:10.275Z,80.20
2023-01-19T07:09:10.339Z,80.09
2023-01-19T07:10:10.229Z,80.09
2023-01-19T07:11:23.208Z,80.09
2023-01-19T07:12:11.196Z,80.09
2023-01-19T07:13:10.166Z,79.88
2023-01-19T07:14:10.155Z,79.88
2023-01-19T07:15:10.249Z,79.88
2023-01-19T07:16:10.119Z,79.78
2023-01-19T07:17:10.191Z,79.68
2023-01-19T07:18:10.250Z,79.78
2023-01-19T07:19:10.197Z,79.78
2023-01-19T07:20:10.075Z,79.78
2023-01-19T07:21:10.088Z,79.78
2023-01-19T07:22:10.142Z,79.78
2023-01-19T07:23:10.059Z,79.74
2023-01-19T07:24:10.049Z,79.53
2023-01-19T07:25:10.040Z,79.53
2023-01-19T07:26:10.044Z,79.43
2023-01-19T07:27:10.019Z,79.43
2023-01-19T07:28:09.969Z,79.53
2023-01-19T07:29:09.998Z,79.53
2023-01-19T07:30:09.922Z,79.64
2023-01-19T07:31:09.999Z,79.64
2023-01-19T07:32:09.978Z,79.64
2023-01-19T07:33:09.967Z,79.64
2023-01-19T07:34:11.717Z,79.64
2023-01-19T07:35:09.916Z,79.68
2023-01-19T07:36:09.972Z,79.88
2023-01-19T07:37:09.878Z,80.09
2023-01-19T07:38:09.856Z,80.09
2023-01-19T07:39:09.963Z,80.09
2023-01-19T07:40:09.817Z,80.09
2023-01-19T07:41:09.803Z,80.20
2023-01-19T07:42:09.789Z,80.20
2023-01-19T07:43:09.829Z,80.09
2023-01-19T07:44:09.848Z,79.99
2023-01-19T07:45:09.819Z,79.88
2023-01-19T07:46:09.943Z,79.99
2023-01-19T07:47:09.794Z,79.99
2023-01-19T07:48:09.774Z,79.99
2023-01-19T07:49:09.790Z,79.88
2023-01-19T07:50:09.689Z,79.74
2023-01-19T07:51:12.599Z,79.74
2023-01-19T07:52:09.739Z,79.64
2023-01-19T07:53:09.709Z,79.43
2023-01-19T07:54:09.736Z,79.19
2023-01-19T07:55:09.651Z,79.08
2023-01-19T07:56:09.716Z,78.87
2023-01-19T07:57:09.747Z,78.87
2023-01-19T07:58:09.613Z,78.87
2023-01-19T07:59:09.623Z,78.77
2023-01-19T08:00:09.607Z,78.56
2023-01-19T08:01:09.783Z,78.56
2023-01-19T08:02:09.563Z,78.45
2023-01-19T08:03:09.550Z,78.25
2023-01-19T08:04:09.627Z,78.28
2023-01-19T08:05:09.514Z,78.49
2023-01-19T08:06:09.534Z,78.59
2023-01-19T08:07:09.517Z,78.66
2023-01-19T08:08:09.523Z,78.35
2023-01-19T08:09:09.457Z,78.35
2023-01-19T08:10:09.433Z,78.18
2023-01-19T08:11:09.435Z,78.28
2023-01-19T08:12:09.414Z,78.49
2023-01-19T08:13:09.409Z,78.59
2023-01-19T08:14:09.609Z,78.59
2023-01-19T08:15:09.412Z,78.59
2023-01-19T08:16:09.416Z,78.56
2023-01-19T08:17:09.337Z,78.45
2023-01-19T08:18:09.392Z,78.25
2023-01-19T08:19:09.311Z,78.14
2023-01-19T08:20:09.308Z,78.14
2023-01-19T08:21:37.215Z,77.94
2023-01-19T08:22:10.398Z,77.83
2023-01-19T08:23:09.324Z,77.94
2023-01-19T08:24:09.565Z,77.94
2023-01-19T08:25:09.272Z,77.72
2023-01-19T08:26:14.945Z,77.72
2023-01-19T08:27:11.216Z,77.58
2023-01-19T08:28:09.217Z,77.27
2023-01-19T08:29:09.281Z,77.17
2023-01-19T08:30:09.186Z,76.96
2023-01-19T08:31:19.716Z,77.10
2023-01-19T08:32:10.325Z,77.31
2023-01-19T08:33:09.139Z,77.51
2023-01-19T08:34:09.100Z,77.48
2023-01-19T08:35:09.132Z,77.37
2023-01-19T08:36:09.181Z,77.17
2023-01-19T08:37:09.071Z,76.96
2023-01-19T08:38:09.071Z,76.68
2023-01-19T08:39:09.112Z,77.10
2023-01-19T08:40:09.078Z,77.62
2023-01-19T08:41:09.017Z,77.41
2023-01-19T08:42:09.085Z,77.31
2023-01-19T08:43:09.018Z,77.41
2023-01-19T08:44:08.999Z,77.48
2023-01-19T08:45:09.053Z,77.27
2023-01-19T08:46:09.049Z,77.13
2023-01-19T08:47:09.036Z,76.82
2023-01-19T08:48:08.995Z,76.72
2023-01-19T08:49:08.917Z,76.61
2023-01-19T08:50:08.939Z,76.75
2023-01-19T08:51:08.908Z,77.06
2023-01-19T08:52:08.901Z,77.37
2023-01-19T08:53:08.858Z,77.37
2023-01-19T08:54:08.900Z,77.17
2023-01-19T08:55:08.936Z,77.06
2023-01-19T08:56:08.847Z,76.96
2023-01-19T08:57:08.825Z,77.03
2023-01-19T08:58:08.885Z,76.92
2023-01-19T08:59:11.358Z,76.75
2023-01-19T09:00:08.860Z,76.96
2023-01-19T09:01:08.857Z,77.06
2023-01-19T09:02:08.756Z,77.06
2023-01-19T09:03:08.856Z,77.03
2023-01-19T09:04:08.779Z,76.92
2023-01-19T09:05:08.711Z,77.13
2023-01-19T09:06:08.743Z,77.03
2023-01-19T09:07:08.740Z,77.03
2023-01-19T09:08:08.758Z,76.92
2023-01-19T09:09:08.651Z,76.78
2023-01-19T09:10:08.672Z,76.78
2023-01-19T09:11:08.719Z,76.47
2023-01-19T09:12:08.717Z,76.26
2023-01-19T09:13:08.728Z,76.47
2023-01-19T09:14:08.706Z,76.47
2023-01-19T09:15:08.626Z,76.57
2023-01-19T09:16:08.683Z,76.78
2023-01-19T09:17:08.577Z,76.57
2023-01-19T09:18:08.595Z,76.57
2023-01-19T09:19:08.580Z,76.75
2023-01-19T09:20:08.538Z,76.54
2023-01-19T09:21:08.492Z,76.43
2023-01-19T09:22:08.855Z,76.43
2023-01-19T09:23:08.512Z,76.33
2023-01-19T09:24:08.770Z,76.06
2023-01-19T09:25:08.494Z,76.20
2023-01-19T09:26:08.500Z,76.51
2023-01-19T09:27:08.521Z,76.82
2023-01-19T09:28:08.435Z,77.03
2023-01-19T09:29:08.454Z,77.23
2023-01-19T09:30:08.434Z,77.10
2023-01-19T09:31:08.585Z,76.99
2023-01-19T09:32:08.409Z,76.99
2023-01-19T09:33:08.381Z,76.68
2023-01-19T09:34:08.333Z,76.68
2023-01-19T09:35:08.363Z,76.65
2023-01-19T09:36:08.338Z,76.54
2023-01-19T09:37:08.339Z,76.43
2023-01-19T09:38:08.340Z,75.81
2023-01-19T09:39:08.281Z,75.92
2023-01-19T09:40:08.306Z,75.57
2023-01-19T09:41:08.260Z,75.46
2023-01-19T09:42:08.237Z,75.36
2023-01-19T09:43:08.336Z,75.15
2023-01-19T09:44:08.303Z,74.91
2023-01-19T09:45:08.254Z,74.80
2023-01-19T09:46:08.259Z,74.70
2023-01-19T09:47:08.211Z,74.49
2023-01-19T09:48:08.193Z,74.49
2023-01-19T09:49:08.121Z,74.29
2023-01-19T09:50:08.144Z,74.49
2023-01-19T09:51:08.138Z,74.29
2023-01-19T09:52:08.101Z,74.08
2023-01-19T09:53:08.212Z,74.18
2023-01-19T09:54:08.200Z,74.29
2023-01-19T09:55:08.063Z,74.21
2023-01-19T09:56:08.084Z,74.49
2023-01-19T09:57:08.083Z,74.39
2023-01-19T09:58:08.037Z,74.35
2023-01-19T09:59:08.147Z,74.04
2023-01-19T10:00:08.029Z,73.94
2023-01-19T10:01:08.152Z,73.70
2023-01-19T10:02:08.073Z,73.49
2023-01-19T10:03:08.023Z,73.39
2023-01-19T10:04:07.959Z,73.32
2023-01-19T10:05:08.046Z,73.42
2023-01-19T10:06:07.909Z,73.97
2023-01-19T10:07:07.930Z,74.60
2023-01-19T10:08:07.982Z,74.49
2023-01-19T10:09:07.915Z,74.70
2023-01-19T10:10:07.896Z,74.67
2023-01-19T10:11:07.867Z,74.60
2023-01-19T10:12:07.953Z,74.60
2023-01-19T10:13:07.863Z,74.60
2023-01-19T10:14:09.227Z,74.67
2023-01-19T10:15:07.845Z,74.67
2023-01-19T10:16:07.809Z,74.67
2023-01-19T10:17:07.839Z,74.46
2023-01-19T10:18:07.892Z,74.39
2023-01-19T10:19:07.777Z,74.39
2023-01-19T10:20:07.724Z,74.39
2023-01-19T10:21:07.764Z,74.39
2023-01-19T10:22:07.754Z,74.25
2023-01-19T10:23:07.715Z,74.29
2023-01-19T10:24:07.705Z,74.39
2023-01-19T10:25:07.688Z,74.60
2023-01-19T10:26:07.640Z,74.49
2023-01-19T10:27:07.757Z,74.70
2023-01-19T10:28:07.657Z,74.70
2023-01-19T10:29:07.645Z,74.46
2023-01-19T10:30:07.636Z,74.35
2023-01-19T10:31:07.751Z,74.35
2023-01-19T10:32:07.644Z,74.25
2023-01-19T10:33:07.627Z,74.32
2023-01-19T10:34:07.533Z,74.22
2023-01-19T10:35:07.533Z,74.01
2023-01-19T10:36:07.556Z,73.80
2023-01-19T10:37:07.574Z,73.91
2023-01-19T10:38:07.555Z,74.01
2023-01-19T10:39:07.530Z,73.91
2023-01-19T10:40:07.548Z,73.80
2023-01-19T10:41:07.526Z,73.91
2023-01-19T10:42:07.490Z,73.80
2023-01-19T10:43:07.440Z,73.80
2023-01-19T10:44:07.457Z,73.97
2023-01-19T10:45:07.435Z,73.91
2023-01-19T10:46:08.120Z,73.91
2023-01-19T10:47:08.390Z,73.87
2023-01-19T10:48:07.476Z,73.66
2023-01-19T10:49:07.373Z,73.70
2023-01-19T10:50:07.398Z,73.56
2023-01-19T10:51:07.453Z,73.25
2023-01-19T10:52:07.385Z,73.25
2023-01-19T10:53:07.300Z,73.35
2023-01-19T10:54:07.411Z,73.25
2023-01-19T10:55:07.257Z,73.14
2023-01-19T10:56:07.276Z,73.14
2023-01-19T10:57:07.324Z,73.00
2023-01-19T10:58:07.294Z,73.22
2023-01-19T10:59:07.246Z,72.90
2023-01-19T11:00:07.398Z,72.59
2023-01-19T11:01:07.286Z,72.59
2023-01-19T11:02:07.436Z,72.59
2023-01-19T11:03:07.327Z,72.69
2023-01-19T11:04:07.179Z,72.49
2023-01-19T11:05:07.220Z,72.69
2023-01-19T11:06:07.298Z,72.59
2023-01-19T11:07:07.142Z,72.59
2023-01-19T11:08:07.173Z,72.49
2023-01-19T11:09:07.110Z,72.56
2023-01-19T11:10:07.183Z,72.49
2023-01-19T11:11:07.099Z,72.38
2023-01-19T11:12:07.051Z,72.69
2023-01-19T11:13:07.272Z,72.59
2023-01-19T11:14:07.229Z,72.59
2023-01-19T11:15:07.062Z,72.69
2023-01-19T11:16:07.282Z,72.59
2023-01-19T11:17:07.033Z,72.83
2023-01-19T11:18:06.969Z,73.35
2023-01-19T11:19:07.214Z,73.77
2023-01-19T11:20:06.998Z,73.77
2023-01-19T11:21:06.989Z,73.87
2023-01-19T11:22:07.276Z,74.18
2023-01-19T11:23:07.053Z,74.63
2023-01-19T11:24:06.927Z,74.95
2023-01-19T11:25:08.217Z,75.26
2023-01-19T11:26:06.955Z,75.26
2023-01-19T11:27:06.891Z,75.15
2023-01-19T11:28:06.964Z,75.01
2023-01-19T11:29:06.896Z,75.01
2023-01-19T11:30:06.873Z,75.01
2023-01-19T11:31:07.108Z,74.77
2023-01-19T11:32:06.865Z,74.67
2023-01-19T11:33:06.784Z,74.57
2023-01-19T11:34:06.831Z,74.43
2023-01-19T11:35:06.785Z,74.22
2023-01-19T11:36:06.774Z,74.01
2023-01-19T11:37:06.806Z,74.01
2023-01-19T11:38:06.805Z,73.94
2023-01-19T11:39:06.721Z,73.94
2023-01-19T11:40:06.803Z,74.08
2023-01-19T11:41:06.695Z,74.60
2023-01-19T11:42:06.673Z,75.01
2023-01-19T11:43:06.730Z,75.09
2023-01-19T11:44:06.724Z,75.01
2023-01-19T11:45:06.647Z,75.01
2023-01-19T11:46:06.729Z,75.01
2023-01-19T11:47:06.625Z,74.88
2023-01-19T11:48:06.604Z,74.77
2023-01-19T11:49:06.616Z,74.88
2023-01-19T11:50:06.604Z,74.88
2023-01-19T11:51:06.611Z,74.88
2023-01-19T11:52:06.582Z,74.53
2023-01-19T11:53:06.574Z,74.32
2023-01-19T11:54:06.523Z,74.32
2023-01-19T11:55:06.581Z,74.11
2023-01-19T11:56:06.545Z,74.11
2023-01-19T11:57:06.470Z,73.91
2023-01-19T11:58:06.540Z,74.01
2023-01-19T11:59:06.443Z,74.11
2023-01-19T12:00:06.513Z,74.22
2023-01-19T12:01:06.511Z,74.22
2023-01-19T12:02:06.474Z,74.43
2023-01-19T12:03:06.450Z,74.32
2023-01-19T12:04:06.530Z,74.22
2023-01-19T12:05:06.394Z,74.11
2023-01-19T12:06:06.389Z,74.43
2023-01-19T12:07:06.362Z,74.63
2023-01-19T12:08:07.128Z,74.40
2023-01-19T12:09:06.376Z,74.50
2023-01-19T12:10:06.360Z,74.29
2023-01-19T12:11:06.303Z,74.08
2023-01-19T12:12:06.282Z,73.57
2023-01-19T12:13:06.274Z,73.91
2023-01-19T12:14:06.301Z,74.32
2023-01-19T12:15:06.271Z,74.43
2023-01-19T12:16:06.237Z,74.43
2023-01-19T12:17:06.273Z,74.98
2023-01-19T12:18:06.255Z,75.40
2023-01-19T12:19:06.317Z,75.46
2023-01-19T12:20:06.249Z,75.46
2023-01-19T12:21:06.192Z,75.46
2023-01-19T12:22:06.159Z,75.57
2023-01-19T12:23:06.171Z,76.12
2023-01-19T12:24:06.242Z,76.85
2023-01-19T12:25:06.119Z,77.16
2023-01-19T12:26:06.149Z,77.89
2023-01-19T12:27:06.190Z,78.20
2023-01-19T12:28:06.100Z,78.20
2023-01-19T12:29:06.081Z,78.51
2023-01-19T12:30:06.069Z,78.72
2023-01-19T12:31:06.210Z,78.89
2023-01-19T12:32:06.047Z,78.68
2023-01-19T12:33:06.087Z,78.78
2023-01-19T12:34:06.108Z,78.68
2023-01-19T12:35:06.007Z,78.58
2023-01-19T12:36:05.965Z,78.58
2023-01-19T12:37:08.607Z,78.68
2023-01-19T12:38:31.981Z,78.99
2023-01-19T12:39:06.071Z,78.99
2023-01-19T12:40:05.921Z,78.78
2023-01-19T12:41:05.961Z,78.78
2023-01-19T12:42:05.948Z,79.20
2023-01-19T12:43:05.885Z,79.20
2023-01-19T12:44:06.207Z,78.89
2023-01-19T12:45:06.157Z,79.20
2023-01-19T12:46:05.918Z,79.30
2023-01-19T12:47:05.831Z,78.96
2023-01-19T12:48:05.884Z,78.75
2023-01-19T12:49:05.879Z,78.51
2023-01-19T12:50:05.897Z,77.92
2023-01-19T12:51:17.086Z,77.82
2023-01-19T12:52:05.777Z,77.51